createdAt,value
2023-03-10T00:00:04.143Z,86
2023-03-10T00:01:12.584Z,86
2023-03-10T00:02:27.794Z,86
2023-03-10T00:03:34.803Z,86
2023-03-10T00:04:41.971Z,86
2023-03-10T00:05:49.810Z,86
2023-03-10T00:06:57.952Z,86
2023-03-10T00:08:04.923Z,86
2023-03-10T00:09:12.411Z,86
2023-03-10T00:10:19.739Z,86
2023-03-10T00:11:27.271Z,86
2023-03-10T00:12:37.935Z,86
2023-03-10T00:13:48.825Z,86
2023-03-10T00:15:01.647Z,86
2023-03-10T00:16:08.864Z,86
2023-03-10T00:17:20.902Z,86
2023-03-10T00:18:30.614Z,86
2023-03-10T00:19:37.626Z,86
2023-03-10T00:20:44.560Z,86
2023-03-10T00:21:54.213Z,85
2023-03-10T00:23:01.266Z,85
2023-03-10T00:24:09.111Z,85
2023-03-10T00:25:16.125Z,85
2023-03-10T00:26:23.043Z,85
2023-03-10T00:27:30.043Z,85
2023-03-10T00:28:37.245Z,85
2023-03-10T00:29:44.403Z,85
2023-03-10T00:30:51.406Z,85
2023-03-10T00:32:03.966Z,85
2023-03-10T00:33:11.195Z,85
2023-03-10T00:34:18.308Z,85
2023-03-10T00:35:26.714Z,85
2023-03-10T00:36:33.706Z,85
2023-03-10T00:37:40.988Z,85
2023-03-10T00:38:49.754Z,85
2023-03-10T00:39:57.627Z,85
2023-03-10T00:41:04.641Z,85
2023-03-10T00:42:11.632Z,85
2023-03-10T00:43:22.626Z,85
2023-03-10T00:44:30.491Z,85
2023-03-10T00:45:41.031Z,85
2023-03-10T00:46:48.101Z,85
2023-03-10T00:47:55.242Z,84
2023-03-10T00:49:02.156Z,85
2023-03-10T00:50:09.206Z,85
2023-03-10T00:51:16.341Z,85
2023-03-10T00:52:23.320Z,85
2023-03-10T00:53:30.381Z,85
2023-03-10T00:54:42.328Z,85
2023-03-10T00:55:50.014Z,85
2023-03-10T00:57:02.174Z,85
2023-03-10T00:58:13.346Z,85
2023-03-10T00:59:20.311Z,85
2023-03-10T01:00:31.843Z,84
2023-03-10T01:01:39.358Z,85
2023-03-10T01:02:50.336Z,84
2023-03-10T01:03:57.285Z,85
2023-03-10T01:05:04.222Z,84
2023-03-10T01:06:11.450Z,85
2023-03-10T01:07:18.654Z,84
2023-03-10T01:08:26.945Z,85
2023-03-10T01:09:34.064Z,84
2023-03-10T01:10:41.191Z,84
2023-03-10T01:11:48.112Z,84
2023-03-10T01:12:55.966Z,84
2023-03-10T01:14:02.928Z,85
2023-03-10T01:15:09.964Z,85
2023-03-10T01:16:20.229Z,85
2023-03-10T01:17:27.097Z,85
2023-03-10T01:18:34.024Z,84
2023-03-10T01:19:41.532Z,85
2023-03-10T01:20:52.192Z,84
2023-03-10T01:21:59.805Z,84
2023-03-10T01:23:07.672Z,85
2023-03-10T01:24:17.644Z,84
2023-03-10T01:25:24.594Z,84
2023-03-10T01:26:31.808Z,84
2023-03-10T01:27:39.044Z,85
2023-03-10T01:28:47.433Z,85
2023-03-10T01:29:55.685Z,84
2023-03-10T01:31:02.630Z,85
2023-03-10T01:32:09.677Z,84
2023-03-10T01:33:18.726Z,84
2023-03-10T01:34:25.659Z,84
2023-03-10T01:35:36.192Z,84
2023-03-10T01:36:48.380Z,84
2023-03-10T01:37:58.215Z,84
2023-03-10T01:39:05.194Z,84
2023-03-10T01:40:12.334Z,84
2023-03-10T01:41:20.225Z,84
2023-03-10T01:42:30.142Z,84
2023-03-10T01:43:40.209Z,84
2023-03-10T01:44:52.145Z,84
2023-03-10T01:46:09.206Z,84
2023-03-10T01:47:26.365Z,84
2023-03-10T01:48:33.716Z,85
2023-03-10T01:49:40.710Z,84
2023-03-10T01:50:48.966Z,84
2023-03-10T01:51:55.971Z,84
2023-03-10T01:53:16.472Z,85
2023-03-10T01:54:23.443Z,85
2023-03-10T01:55:30.546Z,84
2023-03-10T01:56:37.698Z,84
2023-03-10T01:57:44.651Z,85
2023-03-10T01:58:54.654Z,84
2023-03-10T02:00:01.568Z,85
2023-03-10T02:01:08.994Z,85
2023-03-10T02:02:15.866Z,84
2023-03-10T02:03:22.878Z,84
2023-03-10T02:04:29.818Z,85
2023-03-10T02:05:36.757Z,84
2023-03-10T02:06:48.069Z,84
2023-03-10T02:07:55.051Z,84
2023-03-10T02:09:05.506Z,84
2023-03-10T02:10:12.471Z,84
2023-03-10T02:11:21.463Z,84
2023-03-10T02:12:30.129Z,84
2023-03-10T02:13:37.096Z,84
2023-03-10T02:14:44.397Z,84
2023-03-10T02:15:55.092Z,84
2023-03-10T02:17:02.089Z,85
2023-03-10T02:18:14.710Z,84
2023-03-10T02:19:21.794Z,84
2023-03-10T02:20:28.920Z,84
2023-03-10T02:21:41.061Z,84
2023-03-10T02:22:48.068Z,84
2023-03-10T02:24:01.228Z,84
2023-03-10T02:25:07.898Z,85
2023-03-10T02:26:25.146Z,84
2023-03-10T02:27:42.243Z,85
2023-03-10T02:28:52.101Z,85
2023-03-10T02:30:01.704Z,85
2023-03-10T02:31:11.595Z,85
2023-03-10T02:32:19.087Z,85
2023-03-10T02:33:27.941Z,85
2023-03-10T02:34:34.907Z,85
2023-03-10T02:35:46.060Z,85
2023-03-10T02:36:52.889Z,85
2023-03-10T02:37:59.991Z,85
2023-03-10T02:39:07.156Z,84
2023-03-10T02:40:14.128Z,85
2023-03-10T02:41:28.833Z,85
2023-03-10T02:42:35.894Z,85
2023-03-10T02:43:43.829Z,85
2023-03-10T02:44:54.620Z,85
2023-03-10T02:46:01.617Z,85
2023-03-10T02:47:08.464Z,85
2023-03-10T02:48:16.264Z,85
2023-03-10T02:49:28.886Z,85
2023-03-10T02:50:36.494Z,85
2023-03-10T02:51:46.266Z,85
2023-03-10T02:52:53.492Z,85
2023-03-10T02:54:03.440Z,85
2023-03-10T02:55:10.369Z,85
2023-03-10T02:56:19.990Z,85
2023-03-10T02:57:27.763Z,85
2023-03-10T02:58:34.793Z,85
2023-03-10T02:59:41.759Z,85
2023-03-10T03:00:49.663Z,85
2023-03-10T03:01:56.934Z,85
2023-03-10T03:03:03.926Z,85
2023-03-10T03:04:12.249Z,85
2023-03-10T03:05:21.441Z,85
2023-03-10T03:06:31.176Z,85
2023-03-10T03:07:38.060Z,85
2023-03-10T03:08:45.260Z,85
2023-03-10T03:09:52.282Z,85
2023-03-10T03:10:59.412Z,85
2023-03-10T03:12:06.403Z,85
2023-03-10T03:13:13.400Z,85
2023-03-10T03:14:20.365Z,85
2023-03-10T03:15:27.435Z,85
2023-03-10T03:16:34.883Z,85
2023-03-10T03:17:45.350Z,85
2023-03-10T03:18:52.223Z,85
2023-03-10T03:19:59.147Z,85
2023-03-10T03:21:06.120Z,85
2023-03-10T03:22:13.070Z,85
2023-03-10T03:23:20.928Z,85
2023-03-10T03:24:28.361Z,85
2023-03-10T03:25:37.803Z,85
2023-03-10T03:26:45.478Z,85
2023-03-10T03:27:52.512Z,85
2023-03-10T03:28:59.803Z,85
2023-03-10T03:30:09.729Z,85
2023-03-10T03:31:20.477Z,84
2023-03-10T03:32:27.335Z,85
2023-03-10T03:33:36.473Z,84
2023-03-10T03:34:44.258Z,85
2023-03-10T03:35:51.398Z,84
2023-03-10T03:36:58.422Z,84
2023-03-10T03:38:05.426Z,84
2023-03-10T03:39:15.551Z,85
2023-03-10T03:40:22.660Z,85
2023-03-10T03:41:29.556Z,84
2023-03-10T03:42:36.517Z,84
2023-03-10T03:43:46.387Z,84
2023-03-10T03:44:56.865Z,84
2023-03-10T03:46:04.742Z,84
2023-03-10T03:47:11.629Z,84
2023-03-10T03:48:21.314Z,84
2023-03-10T03:49:26.502Z,84
2023-03-10T03:50:33.466Z,84
2023-03-10T03:51:45.043Z,84
2023-03-10T03:52:51.978Z,84
2023-03-10T03:53:59.181Z,84
2023-03-10T03:55:06.402Z,84
2023-03-10T03:56:13.837Z,84
2023-03-10T03:57:21.552Z,84
2023-03-10T03:58:30.539Z,84
2023-03-10T03:59:42.318Z,84
2023-03-10T04:00:52.350Z,84
2023-03-10T04:02:00.223Z,84
2023-03-10T04:03:07.072Z,84
2023-03-10T04:04:15.195Z,84
2023-03-10T04:05:23.040Z,84
2023-03-10T04:06:32.170Z,84
2023-03-10T04:07:39.139Z,84
2023-03-10T04:08:46.263Z,84
2023-03-10T04:09:53.241Z,85
2023-03-10T04:11:03.791Z,84
2023-03-10T04:12:10.760Z,84
2023-03-10T04:13:17.867Z,85
2023-03-10T04:14:24.820Z,85
2023-03-10T04:15:35.291Z,85
2023-03-10T04:16:47.175Z,84
2023-03-10T04:17:54.159Z,85
2023-03-10T04:19:03.928Z,85
2023-03-10T04:20:10.925Z,85
2023-03-10T04:21:17.968Z,85
2023-03-10T04:22:25.069Z,85
2023-03-10T04:23:31.973Z,85
2023-03-10T04:24:39.055Z,84
2023-03-10T04:25:48.910Z,85
2023-03-10T04:26:56.080Z,85
2023-03-10T04:28:04.260Z,85
2023-03-10T04:29:11.300Z,85
2023-03-10T04:30:18.301Z,84
2023-03-10T04:31:28.107Z,85
2023-03-10T04:32:36.153Z,85
2023-03-10T04:33:43.543Z,84
2023-03-10T04:34:53.364Z,84
2023-03-10T04:36:00.694Z,84
2023-03-10T04:37:08.286Z,84
2023-03-10T04:38:16.646Z,84
2023-03-10T04:39:23.666Z,84
2023-03-10T04:40:36.184Z,84
2023-03-10T04:41:43.206Z,84
2023-03-10T04:42:50.269Z,84
2023-03-10T04:43:57.250Z,84
2023-03-10T04:45:04.261Z,84
2023-03-10T04:46:15.300Z,84
2023-03-10T04:47:23.187Z,84
2023-03-10T04:48:30.176Z,84
2023-03-10T04:49:37.238Z,84
2023-03-10T04:50:44.274Z,84
2023-03-10T04:51:54.029Z,84
2023-03-10T04:53:01.080Z,84
2023-03-10T04:54:08.003Z,84
2023-03-10T04:55:14.978Z,84
2023-03-10T04:56:21.950Z,84
2023-03-10T04:57:29.718Z,84
2023-03-10T04:58:36.653Z,84
2023-03-10T04:59:47.128Z,84
2023-03-10T05:01:03.051Z,84
2023-03-10T05:02:07.212Z,84
2023-03-10T05:03:14.077Z,84
2023-03-10T05:04:24.321Z,84
2023-03-10T05:05:31.564Z,84
2023-03-10T05:06:41.409Z,83
2023-03-10T05:07:49.158Z,84
2023-03-10T05:08:56.116Z,84
2023-03-10T05:10:04.840Z,83
2023-03-10T05:11:12.162Z,83
2023-03-10T05:12:20.470Z,83
2023-03-10T05:13:29.524Z,83
2023-03-10T05:14:34.525Z,84
2023-03-10T05:15:41.656Z,84
2023-03-10T05:16:50.106Z,84
2023-03-10T05:17:57.175Z,83
2023-03-10T05:19:04.585Z,84
2023-03-10T05:20:12.802Z,84
2023-03-10T05:21:23.122Z,83
2023-03-10T05:22:30.268Z,83
2023-03-10T05:23:37.876Z,83
2023-03-10T05:24:46.057Z,84
2023-03-10T05:25:53.616Z,84
2023-03-10T05:27:02.306Z,84
2023-03-10T05:28:09.340Z,83
2023-03-10T05:29:16.359Z,83
2023-03-10T05:30:25.968Z,83
2023-03-10T05:31:33.073Z,83
2023-03-10T05:32:42.580Z,83
2023-03-10T05:33:50.564Z,83
2023-03-10T05:34:59.044Z,83
2023-03-10T05:36:07.949Z,83
2023-03-10T05:37:17.553Z,83
2023-03-10T05:38:25.180Z,83
2023-03-10T05:39:35.720Z,83
2023-03-10T05:40:43.673Z,83
2023-03-10T05:41:50.633Z,83
2023-03-10T05:43:00.705Z,83
2023-03-10T05:44:08.874Z,83
2023-03-10T05:45:19.226Z,83
2023-03-10T05:46:28.793Z,84
2023-03-10T05:47:35.830Z,84
2023-03-10T05:48:47.506Z,84
2023-03-10T05:49:54.501Z,83
2023-03-10T05:51:04.365Z,84
2023-03-10T05:52:14.433Z,84
2023-03-10T05:53:21.438Z,83
2023-03-10T05:54:28.369Z,83
2023-03-10T05:55:35.389Z,84
2023-03-10T05:56:42.492Z,83
2023-03-10T05:57:51.486Z,83
2023-03-10T05:59:02.345Z,83
2023-03-10T06:00:13.426Z,84
2023-03-10T06:01:22.418Z,84
2023-03-10T06:02:29.318Z,84
2023-03-10T06:03:37.624Z,83
2023-03-10T06:04:44.356Z,83
2023-03-10T06:05:54.773Z,83
2023-03-10T06:07:01.810Z,83
2023-03-10T06:08:08.699Z,83
2023-03-10T06:09:15.654Z,83
2023-03-10T06:10:22.498Z,83
2023-03-10T06:11:29.473Z,83
2023-03-10T06:12:36.433Z,83
2023-03-10T06:13:44.590Z,82
2023-03-10T06:14:51.580Z,82
2023-03-10T06:15:58.722Z,83
2023-03-10T06:17:10.294Z,82
2023-03-10T06:18:20.342Z,82
2023-03-10T06:19:27.549Z,82
2023-03-10T06:20:38.374Z,82
2023-03-10T06:22:00.001Z,82
2023-03-10T06:23:09.262Z,82
2023-03-10T06:24:16.985Z,82
2023-03-10T06:25:24.214Z,81
2023-03-10T06:26:31.216Z,81
2023-03-10T06:27:38.773Z,80
2023-03-10T06:28:45.795Z,81
2023-03-10T06:29:54.705Z,80
2023-03-10T06:31:01.691Z,80
2023-03-10T06:32:08.696Z,80
2023-03-10T06:33:18.440Z,80
2023-03-10T06:34:25.652Z,80
2023-03-10T06:35:33.747Z,79
2023-03-10T06:36:40.866Z,79
2023-03-10T06:37:50.222Z,79
2023-03-10T06:39:00.801Z,78
2023-03-10T06:40:07.857Z,78
2023-03-10T06:41:16.770Z,78
2023-03-10T06:42:25.939Z,78
2023-03-10T06:43:32.878Z,78
2023-03-10T06:44:41.594Z,77
2023-03-10T06:45:46.821Z,77
2023-03-10T06:46:52.791Z,77
2023-03-10T06:48:00.988Z,77
2023-03-10T06:49:08.490Z,78
2023-03-10T06:50:15.545Z,78
2023-03-10T06:51:22.700Z,78
2023-03-10T06:52:30.515Z,78
2023-03-10T06:53:37.605Z,77
2023-03-10T06:54:47.467Z,78
2023-03-10T06:55:57.699Z,77
2023-03-10T06:57:04.778Z,77
2023-03-10T06:58:12.609Z,77
2023-03-10T06:59:22.104Z,78
2023-03-10T07:00:29.156Z,78
2023-03-10T07:01:39.027Z,77
2023-03-10T07:02:48.389Z,77
2023-03-10T07:03:55.732Z,77
2023-03-10T07:05:03.108Z,77
2023-03-10T07:06:10.149Z,78
2023-03-10T07:07:17.152Z,78
2023-03-10T07:08:24.302Z,78
2023-03-10T07:09:32.096Z,78
2023-03-10T07:10:41.994Z,77
2023-03-10T07:11:48.982Z,76
2023-03-10T07:12:58.640Z,76
2023-03-10T07:14:05.595Z,75
2023-03-10T07:15:12.693Z,75
2023-03-10T07:16:21.296Z,75
2023-03-10T07:17:29.006Z,75
2023-03-10T07:18:36.639Z,75
2023-03-10T07:19:45.456Z,75
2023-03-10T07:20:52.679Z,75
2023-03-10T07:21:59.671Z,74
2023-03-10T07:23:09.558Z,74
2023-03-10T07:24:19.081Z,74
2023-03-10T07:25:26.219Z,74
2023-03-10T07:26:33.465Z,73
2023-03-10T07:27:45.103Z,73
2023-03-10T07:28:55.043Z,73
2023-03-10T07:30:04.950Z,73
2023-03-10T07:31:13.394Z,73
2023-03-10T07:32:21.293Z,72
2023-03-10T07:33:31.066Z,72
2023-03-10T07:34:41.227Z,71
2023-03-10T07:35:50.607Z,71
2023-03-10T07:36:57.532Z,71
2023-03-10T07:38:07.216Z,71
2023-03-10T07:39:15.579Z,72
2023-03-10T07:40:23.347Z,72
2023-03-10T07:41:30.351Z,72
2023-03-10T07:42:37.585Z,71
2023-03-10T07:43:44.585Z,71
2023-03-10T07:44:52.308Z,71
2023-03-10T07:45:59.387Z,71
2023-03-10T07:47:11.298Z,69
2023-03-10T07:48:18.890Z,69
2023-03-10T07:49:26.154Z,69
2023-03-10T07:50:33.130Z,69
2023-03-10T07:51:43.369Z,68
2023-03-10T07:52:54.630Z,68
2023-03-10T07:54:02.523Z,68
2023-03-10T07:55:10.362Z,67
2023-03-10T07:56:17.446Z,67
2023-03-10T07:57:24.363Z,67
2023-03-10T07:58:31.265Z,67
2023-03-10T07:59:38.178Z,67
2023-03-10T08:00:44.948Z,67
2023-03-10T08:01:57.137Z,66
2023-03-10T08:03:04.059Z,66
2023-03-10T08:04:11.141Z,65
2023-03-10T08:05:18.000Z,66
2023-03-10T08:06:25.808Z,66
2023-03-10T08:07:32.646Z,65
2023-03-10T08:08:39.730Z,65
2023-03-10T08:09:47.516Z,66
2023-03-10T08:10:54.428Z,66
2023-03-10T08:12:08.182Z,65
2023-03-10T08:13:15.159Z,64
2023-03-10T08:14:21.975Z,65
2023-03-10T08:15:29.302Z,65
2023-03-10T08:16:36.152Z,64
2023-03-10T08:17:43.038Z,63
2023-03-10T08:18:49.970Z,64
2023-03-10T08:19:56.774Z,64
2023-03-10T08:21:03.696Z,63
2023-03-10T08:22:10.541Z,63
2023-03-10T08:23:17.434Z,63
2023-03-10T08:24:24.532Z,63
2023-03-10T08:25:31.545Z,63
2023-03-10T08:26:38.485Z,63
2023-03-10T08:27:45.584Z,62
2023-03-10T08:28:52.455Z,63
2023-03-10T08:29:59.359Z,64
2023-03-10T08:31:06.343Z,63
2023-03-10T08:32:18.303Z,63
2023-03-10T08:33:25.080Z,64
2023-03-10T08:34:31.907Z,64
2023-03-10T08:35:38.801Z,64
2023-03-10T08:36:45.570Z,64
2023-03-10T08:37:55.117Z,64
2023-03-10T08:38:59.378Z,64
2023-03-10T08:40:06.224Z,65
2023-03-10T08:41:13.586Z,64
2023-03-10T08:42:20.395Z,65
2023-03-10T08:43:27.310Z,65
2023-03-10T08:44:34.472Z,64
2023-03-10T08:45:41.410Z,65
2023-03-10T08:46:48.341Z,65
2023-03-10T08:47:55.204Z,65
2023-03-10T08:49:02.244Z,66
2023-03-10T08:50:09.156Z,65
2023-03-10T08:51:16.556Z,65
2023-03-10T08:52:22.752Z,65
2023-03-10T08:53:29.761Z,65
2023-03-10T08:54:36.585Z,65
2023-03-10T08:55:43.551Z,65
2023-03-10T08:56:50.282Z,66
2023-03-10T08:57:57.215Z,65
2023-03-10T08:59:04.009Z,64
2023-03-10T09:00:10.777Z,65
2023-03-10T09:01:17.906Z,65
2023-03-10T09:02:24.831Z,65
2023-03-10T09:03:32.103Z,65
2023-03-10T09:04:41.337Z,65
2023-03-10T09:05:48.211Z,65
2023-03-10T09:06:55.128Z,65
2023-03-10T09:08:01.992Z,65
2023-03-10T09:09:08.815Z,65
2023-03-10T09:10:15.633Z,65
2023-03-10T09:11:22.578Z,65
2023-03-10T09:12:34.148Z,64
2023-03-10T09:13:36.571Z,65
2023-03-10T09:14:43.454Z,65
2023-03-10T09:15:50.458Z,64
2023-03-10T09:16:58.038Z,64
2023-03-10T09:18:05.523Z,64
2023-03-10T09:19:12.340Z,65
2023-03-10T09:20:19.216Z,64
2023-03-10T09:21:26.150Z,64
2023-03-10T09:22:33.172Z,64
2023-03-10T09:23:40.030Z,64
2023-03-10T09:24:46.873Z,64
2023-03-10T09:25:53.981Z,64
2023-03-10T09:27:01.010Z,65
2023-03-10T09:28:08.024Z,65
2023-03-10T09:29:14.916Z,65
2023-03-10T09:30:21.897Z,65
2023-03-10T09:31:28.792Z,64
2023-03-10T09:32:35.848Z,64
2023-03-10T09:33:42.893Z,64
2023-03-10T09:34:49.740Z,63
2023-03-10T09:36:07.524Z,63
2023-03-10T09:37:05.655Z,63
2023-03-10T09:38:12.285Z,63
2023-03-10T09:39:20.137Z,62
2023-03-10T09:40:27.092Z,62
2023-03-10T09:41:35.852Z,62
2023-03-10T09:42:46.075Z,61
2023-03-10T09:43:58.263Z,60
2023-03-10T09:45:08.252Z,59
2023-03-10T09:46:18.433Z,59
2023-03-10T09:47:30.317Z,58
2023-03-10T09:48:42.240Z,58
2023-03-10T09:49:54.111Z,57
2023-03-10T09:51:14.346Z,57
2023-03-10T09:52:24.448Z,56
2023-03-10T09:53:41.418Z,56
2023-03-10T09:54:53.368Z,56
2023-03-10T09:56:00.382Z,56
2023-03-10T09:57:07.296Z,55
2023-03-10T09:58:14.387Z,56
2023-03-10T09:59:25.086Z,55
2023-03-10T10:00:37.010Z,55
2023-03-10T10:01:43.794Z,56
2023-03-10T10:02:50.794Z,56
2023-03-10T10:04:05.755Z,56
2023-03-10T10:05:21.428Z,56
2023-03-10T10:06:29.010Z,56
2023-03-10T10:07:38.080Z,57
2023-03-10T10:08:48.994Z,57
2023-03-10T10:09:51.695Z,56
2023-03-10T10:11:04.982Z,57
2023-03-10T10:12:12.084Z,56
2023-03-10T10:13:19.102Z,56
2023-03-10T10:14:30.954Z,57
2023-03-10T10:15:35.386Z,57
2023-03-10T10:16:39.980Z,57
2023-03-10T10:17:56.610Z,57
2023-03-10T10:19:04.436Z,57
2023-03-10T10:20:16.544Z,57
2023-03-10T10:21:25.959Z,57
2023-03-10T10:22:37.366Z,57
2023-03-10T10:23:44.177Z,57
2023-03-10T10:24:53.130Z,57
2023-03-10T10:26:06.221Z,57
2023-03-10T10:27:16.125Z,57
2023-03-10T10:28:23.145Z,58
2023-03-10T10:29:30.032Z,57
2023-03-10T10:30:36.988Z,58
2023-03-10T10:31:43.767Z,58
2023-03-10T10:33:00.760Z,57
2023-03-10T10:34:17.950Z,58
2023-03-10T10:35:24.537Z,58
2023-03-10T10:36:31.425Z,58
2023-03-10T10:37:41.671Z,57
2023-03-10T10:38:48.687Z,57
2023-03-10T10:39:55.567Z,58
2023-03-10T10:41:03.983Z,58
2023-03-10T10:42:09.464Z,57
2023-03-10T10:43:21.397Z,57
2023-03-10T10:44:28.192Z,58
2023-03-10T10:45:35.074Z,57
2023-03-10T10:46:41.897Z,57
2023-03-10T10:47:54.772Z,57
2023-03-10T10:49:01.591Z,57
2023-03-10T10:50:08.417Z,56
2023-03-10T10:51:23.324Z,56
2023-03-10T10:52:33.164Z,56
2023-03-10T10:53:39.973Z,56
2023-03-10T10:54:46.878Z,56
2023-03-10T10:55:56.471Z,55
2023-03-10T10:57:08.678Z,55
2023-03-10T10:58:21.194Z,54
2023-03-10T10:59:33.062Z,55
2023-03-10T11:00:40.013Z,55
2023-03-10T11:01:47.115Z,54
2023-03-10T11:02:59.929Z,55
2023-03-10T11:04:17.615Z,55
2023-03-10T11:05:23.891Z,55
2023-03-10T11:06:35.854Z,55
2023-03-10T11:07:43.470Z,54
2023-03-10T11:08:50.391Z,54
2023-03-10T11:10:07.354Z,54
2023-03-10T11:11:17.178Z,54
2023-03-10T11:12:29.062Z,54
2023-03-10T11:13:38.703Z,53
2023-03-10T11:14:48.163Z,54
2023-03-10T11:16:05.198Z,54
2023-03-10T11:17:19.749Z,53
2023-03-10T11:18:30.073Z,53
2023-03-10T11:19:42.092Z,53
2023-03-10T11:20:56.911Z,53
2023-03-10T11:22:08.932Z,52
2023-03-10T11:23:21.678Z,52
2023-03-10T11:24:33.712Z,52
2023-03-10T11:25:45.666Z,53
2023-03-10T11:26:55.585Z,53
2023-03-10T11:28:05.185Z,52
2023-03-10T11:29:20.266Z,53
2023-03-10T11:30:35.136Z,53
2023-03-10T11:31:42.058Z,53
2023-03-10T11:32:54.049Z,53
2023-03-10T11:34:00.958Z,53
2023-03-10T11:35:12.766Z,53
2023-03-10T11:36:25.597Z,52
2023-03-10T11:37:37.553Z,52
2023-03-10T11:38:47.056Z,52
2023-03-10T11:39:53.959Z,52
2023-03-10T11:41:08.737Z,52
2023-03-10T11:42:18.520Z,51
2023-03-10T11:43:35.595Z,52
2023-03-10T11:44:45.211Z,52
2023-03-10T11:45:57.483Z,52
2023-03-10T11:47:04.343Z,52
2023-03-10T11:48:17.263Z,52
2023-03-10T11:49:33.088Z,52
2023-03-10T11:50:42.669Z,52
2023-03-10T11:51:54.606Z,52
2023-03-10T11:53:04.637Z,51
2023-03-10T11:54:17.326Z,52
2023-03-10T11:55:24.337Z,51
2023-03-10T11:56:31.190Z,51
2023-03-10T11:57:38.122Z,52
2023-03-10T11:58:45.182Z,52
2023-03-10T11:59:55.198Z,52
2023-03-10T12:01:06.109Z,52
2023-03-10T12:02:13.524Z,52
2023-03-10T12:03:31.810Z,52
2023-03-10T12:04:44.802Z,52
2023-03-10T12:05:57.776Z,51
2023-03-10T12:07:05.997Z,51
2023-03-10T12:08:15.622Z,51
2023-03-10T12:09:24.109Z,51
2023-03-10T12:10:37.545Z,51
2023-03-10T12:11:44.645Z,51
2023-03-10T12:12:52.099Z,51
2023-03-10T12:13:59.820Z,51
2023-03-10T12:15:08.267Z,51
2023-03-10T12:16:29.260Z,51
2023-03-10T12:17:36.547Z,51
2023-03-10T12:18:44.554Z,51
2023-03-10T12:19:52.238Z,51
2023-03-10T12:21:09.176Z,51
2023-03-10T12:22:24.260Z,52
2023-03-10T12:23:39.480Z,52
2023-03-10T12:24:47.645Z,52
2023-03-10T12:25:54.839Z,52
2023-03-10T12:27:02.373Z,51
2023-03-10T12:28:09.458Z,52
2023-03-10T12:29:20.674Z,51
2023-03-10T12:30:30.519Z,51
2023-03-10T12:31:47.751Z,51
2023-03-10T12:32:55.816Z,51
2023-03-10T12:34:03.081Z,51
2023-03-10T12:35:18.126Z,51
2023-03-10T12:36:31.078Z,51
2023-03-10T12:37:41.651Z,51
2023-03-10T12:38:49.254Z,51
2023-03-10T12:39:58.791Z,51
2023-03-10T12:41:16.997Z,51
2023-03-10T12:42:30.923Z,51
2023-03-10T12:43:40.486Z,52
2023-03-10T12:45:09.393Z,51
2023-03-10T12:46:20.672Z,51
2023-03-10T12:47:38.501Z,51
2023-03-10T12:48:48.354Z,51
2023-03-10T12:50:03.628Z,51
2023-03-10T12:51:18.589Z,51
2023-03-10T12:52:25.097Z,51
2023-03-10T12:53:37.106Z,51
2023-03-10T12:54:48.948Z,51
2023-03-10T12:56:07.578Z,51
2023-03-10T12:57:18.813Z,50
2023-03-10T12:58:32.526Z,51
2023-03-10T12:59:39.702Z,51
2023-03-10T13:00:55.262Z,52
2023-03-10T13:02:02.022Z,51
2023-03-10T13:03:09.752Z,51
2023-03-10T13:04:21.272Z,51
2023-03-10T13:05:28.110Z,51
2023-03-10T13:06:36.892Z,52
2023-03-10T13:07:45.129Z,53
2023-03-10T13:08:53.072Z,53
2023-03-10T13:10:05.261Z,53
2023-03-10T13:11:12.233Z,52
2023-03-10T13:12:24.858Z,53
2023-03-10T13:13:40.192Z,53
2023-03-10T13:14:47.112Z,54
2023-03-10T13:15:59.174Z,57
2023-03-10T13:17:06.226Z,58
2023-03-10T13:18:20.906Z,59
2023-03-10T13:19:27.797Z,58
2023-03-10T13:20:35.454Z,58
2023-03-10T13:21:43.285Z,59
2023-03-10T13:22:50.206Z,59
2023-03-10T13:24:00.019Z,59
2023-03-10T13:25:07.033Z,60
2023-03-10T13:26:16.693Z,59
2023-03-10T13:27:25.170Z,59
2023-03-10T13:28:31.488Z,59
2023-03-10T13:29:38.508Z,58
2023-03-10T13:30:51.192Z,57
2023-03-10T13:32:12.787Z,58
2023-03-10T13:33:25.383Z,57
2023-03-10T13:34:29.563Z,56
2023-03-10T13:35:36.511Z,57
2023-03-10T13:36:43.312Z,56
2023-03-10T13:37:50.228Z,56
2023-03-10T13:39:07.239Z,56
2023-03-10T13:40:23.125Z,55
2023-03-10T13:41:30.603Z,55
2023-03-10T13:42:44.025Z,55
2023-03-10T13:43:45.191Z,55
2023-03-10T13:44:52.119Z,55
2023-03-10T13:45:59.139Z,55
2023-03-10T13:47:06.822Z,55
2023-03-10T13:48:21.496Z,55
2023-03-10T13:49:29.282Z,55
2023-03-10T13:50:36.887Z,55
2023-03-10T13:51:44.772Z,55
2023-03-10T13:52:56.781Z,56
2023-03-10T13:54:03.715Z,55
2023-03-10T13:55:21.588Z,55
2023-03-10T13:56:28.516Z,55
2023-03-10T13:57:38.239Z,55
2023-03-10T13:58:45.232Z,54
2023-03-10T13:59:53.389Z,54
2023-03-10T14:01:01.555Z,54
2023-03-10T14:02:09.549Z,54
2023-03-10T14:03:22.711Z,53
2023-03-10T14:04:32.325Z,54
2023-03-10T14:05:47.798Z,54
2023-03-10T14:06:54.841Z,54
2023-03-10T14:08:10.513Z,54
2023-03-10T14:09:28.225Z,54
2023-03-10T14:10:35.611Z,54
2023-03-10T14:11:43.270Z,54
2023-03-10T14:12:53.298Z,54
2023-03-10T14:14:00.636Z,54
2023-03-10T14:15:09.022Z,53
2023-03-10T14:16:23.771Z,53
2023-03-10T14:17:41.151Z,53
2023-03-10T14:18:52.639Z,53
2023-03-10T14:20:00.530Z,53
2023-03-10T14:21:08.659Z,53
2023-03-10T14:22:25.961Z,53
2023-03-10T14:23:38.111Z,53
2023-03-10T14:24:45.362Z,53
2023-03-10T14:25:54.031Z,53
2023-03-10T14:27:01.714Z,53
2023-03-10T14:28:09.028Z,53
2023-03-10T14:29:16.165Z,54
2023-03-10T14:30:25.958Z,54
2023-03-10T14:31:33.038Z,54
2023-03-10T14:32:40.315Z,54
2023-03-10T14:33:47.657Z,54
2023-03-10T14:34:56.540Z,54
2023-03-10T14:36:06.465Z,55
2023-03-10T14:37:14.026Z,55
2023-03-10T14:38:21.114Z,55
2023-03-10T14:39:28.573Z,55
2023-03-10T14:40:45.393Z,54
2023-03-10T14:41:55.227Z,54
2023-03-10T14:43:02.795Z,55
2023-03-10T14:44:09.821Z,55
2023-03-10T14:45:16.911Z,55
2023-03-10T14:46:29.562Z,55
2023-03-10T14:47:37.478Z,55
2023-03-10T14:48:44.387Z,56
2023-03-10T14:49:52.910Z,56
2023-03-10T14:51:00.126Z,56
2023-03-10T14:52:08.055Z,55
2023-03-10T14:53:16.022Z,56
2023-03-10T14:54:27.632Z,56
2023-03-10T14:55:35.616Z,56
2023-03-10T14:56:45.656Z,56
2023-03-10T14:57:53.652Z,56
2023-03-10T14:59:04.014Z,56
2023-03-10T15:00:11.046Z,56
2023-03-10T15:01:22.601Z,56
2023-03-10T15:02:29.636Z,56
2023-03-10T15:03:38.240Z,56
2023-03-10T15:04:45.817Z,55
2023-03-10T15:05:52.775Z,55
2023-03-10T15:07:00.375Z,55
2023-03-10T15:08:08.510Z,55
2023-03-10T15:09:15.664Z,56
2023-03-10T15:10:22.803Z,56
2023-03-10T15:11:37.216Z,56
2023-03-10T15:12:39.916Z,56
2023-03-10T15:13:47.008Z,56
2023-03-10T15:14:54.814Z,56
2023-03-10T15:16:01.987Z,57
2023-03-10T15:17:09.481Z,56
2023-03-10T15:18:16.735Z,57
2023-03-10T15:19:27.712Z,57
2023-03-10T15:20:34.738Z,57
2023-03-10T15:21:41.937Z,57
2023-03-10T15:22:49.103Z,57
2023-03-10T15:23:56.401Z,57
2023-03-10T15:25:07.770Z,56
2023-03-10T15:26:14.942Z,57
2023-03-10T15:27:23.702Z,56
2023-03-10T15:28:31.342Z,57
2023-03-10T15:29:43.920Z,57
2023-03-10T15:30:51.021Z,57
2023-03-10T15:31:58.045Z,57
2023-03-10T15:33:06.596Z,57
2023-03-10T15:34:13.649Z,57
2023-03-10T15:35:20.682Z,57
2023-03-10T15:36:28.234Z,56
2023-03-10T15:37:36.406Z,56
2023-03-10T15:38:43.414Z,57
2023-03-10T15:39:51.189Z,57
2023-03-10T15:40:58.933Z,57
2023-03-10T15:42:06.307Z,57
2023-03-10T15:43:13.488Z,57
2023-03-10T15:44:21.008Z,57
2023-03-10T15:45:28.151Z,57
2023-03-10T15:46:35.871Z,57
2023-03-10T15:47:42.656Z,57
2023-03-10T15:48:54.270Z,57
2023-03-10T15:50:01.457Z,57
2023-03-10T15:51:09.793Z,57
2023-03-10T15:52:18.800Z,58
2023-03-10T15:53:27.048Z,58
2023-03-10T15:54:34.197Z,58
2023-03-10T15:55:43.256Z,58
2023-03-10T15:56:51.215Z,58
2023-03-10T15:58:02.043Z,58
2023-03-10T15:59:11.732Z,59
2023-03-10T16:00:19.823Z,58
2023-03-10T16:01:34.860Z,59
2023-03-10T16:02:41.900Z,59
2023-03-10T16:03:49.029Z,60
2023-03-10T16:04:58.832Z,59
2023-03-10T16:06:06.739Z,59
2023-03-10T16:07:13.963Z,59
2023-03-10T16:08:23.204Z,59
2023-03-10T16:09:30.164Z,59
2023-03-10T16:10:37.408Z,59
2023-03-10T16:11:44.528Z,59
2023-03-10T16:12:51.924Z,59
2023-03-10T16:13:59.038Z,59
2023-03-10T16:15:09.478Z,60
2023-03-10T16:16:20.949Z,59
2023-03-10T16:17:28.634Z,59
2023-03-10T16:18:36.000Z,60
2023-03-10T16:19:45.952Z,60
2023-03-10T16:20:53.106Z,60